Nearby METAR Reports

 

KMNN - Marion, Ohio, USA
Distance from station: ENE 4mi, 6km
Updated: 05/23/2019 1:53pm
Partly cloudy
Partly cloudy
 Wind from W
Wind: W 21 mph , 33 km/h, Gust: 32 mph , 52 km/h
Temperature: 81°F , 27°C
Heat Index: 83°F , 28°C
Dew Point: 64°F , 18°C
Humidity: 58%
Barometer: 30.02 inHg , 1016.6 hPa
Clouds: Partly cloudy
Visibility: 10 miles , 16 km
Cloud details: Partly cloudy 3900 ft
2019/05/23 17:53 KMNN 231753Z AUTO 26018G28KT 10SM SCT039 27/18 A3002 RMK AO2 PK WND 24031/1736 SLP160 60009 T02670178 10267 20194 56014
KDLZ - Delaware, Ohio, USA
Distance from station: S 21mi, 34km
Updated: 05/23/2019 2:15pm
Partly cloudy
Partly cloudy
 Wind from WSW
Wind: WSW 21 mph , 33 km/h, Gust: 29 mph , 46 km/h
Temperature: 79°F , 26°C
Dew Point: 66°F , 19°C
Humidity: 65%
Barometer: 30.03 inHg , 1016.9 hPa
Clouds: Partly cloudy
Visibility: 10 miles , 16 km
Cloud details: Partly cloudy 3100 ft
Partly cloudy 3500 ft
2019/05/23 18:15 KDLZ 231815Z AUTO 25018G25KT 10SM SCT031 SCT035 26/19 A3003 RMK AO2
 
KMRT - Marysville, Ohio, USA
Distance from station: SSW 28mi, 45km
Updated: 05/23/2019 2:15pm
Partly cloudy
Partly cloudy
 Wind from W
Wind: W 26 mph , 43 km/h, Gust: 31 mph , 50 km/h
Temperature: 79°F , 26°C
Dew Point: 68°F , 20°C
Humidity: 70%
Barometer: 30.04 inHg , 1017.3 hPa
Clouds: Partly cloudy
Visibility: 10 miles , 16 km
Cloud details: Partly cloudy 2800 ft
2019/05/23 18:15 KMRT 231815Z AUTO 26023G27KT 10SM SCT028 26/20 A3004 RMK AO2 T02620197
KOSU - Columbus/St Univ, Ohio, USA
Distance from station: S 35mi, 56km
Updated: 05/23/2019 1:53pm
Mostly cloudy
Mostly cloudy
 Wind from WSW
Wind: WSW 24 mph , 39 km/h, Gust: 32 mph , 52 km/h
Temperature: 81°F , 27°C
Heat Index: 83°F , 28°C
Dew Point: 66°F , 19°C
Humidity: 62%
Barometer: 30.04 inHg , 1017.3 hPa
Clouds: Mostly cloudy
Visibility: 10 miles , 16 km
Cloud details: Mostly cloudy 3500 ft
2019/05/23 17:53 KOSU 231753Z 24021G28KT 10SM BKN035 27/19 A3004 RMK AO2 PK WND 22031/1731 RAB18E52 SLP166 P0000 60014 T02670194 10267 20189 58014
 
KMFD - Mansfield, Ohio, USA
Distance from station: ENE 36mi, 57km
Updated: 05/23/2019 1:52pm
Few Clouds
Few Clouds
 Wind from WSW
Wind: WSW 22 mph , 35 km/h, Gust: 38 mph , 61 km/h
Temperature: 81°F , 27°C
Heat Index: 82°F , 28°C
Dew Point: 63°F , 17°C
Humidity: 54%
Barometer: 30.01 inHg , 1016.3 hPa
Clouds: Few Clouds
Visibility: 10 miles , 16 km
Cloud details: Few Clouds 4500 ft
2019/05/23 17:52 KMFD 231752Z 25019G33KT 10SM FEW045 27/17 A3001 RMK AO2 PK WND 22033/1705 SLP153 60002 T02670172 10267 20194 56009
K4I3 - Mt Vernon/Knox, Ohio, USA
Distance from station: ESE 36mi, 58km
Updated: 05/23/2019 2:35pm
Mostly cloudy
Mostly cloudy
 Wind from WSW
Wind: WSW 16 mph , 26 km/h, Gust: 24 mph , 39 km/h
Temperature: 81°F , 27°C
Heat Index: 85°F , 29°C
Dew Point: 70°F , 21°C
Humidity: 70%
Barometer: 30.04 inHg , 1017.3 hPa
Clouds: Mostly cloudy
Visibility: 10 miles , 16 km
Cloud details: Mostly cloudy 3700 ft
Mostly cloudy 4600 ft
2019/05/23 18:35 K4I3 231835Z AUTO 24014G21KT 10SM BKN037 BKN046 27/21 A3004 RMK AO2
 
KEDJ - Bellefontaine, Ohio, USA
Distance from station: WSW 39mi, 63km
Updated: 05/23/2019 2:15pm
Mostly cloudy
Mostly cloudy
 Wind from WSW
Wind: WSW 22 mph , 35 km/h, Gust: 32 mph , 52 km/h
Temperature: 77°F , 25°C
Dew Point: 68°F , 20°C
Humidity: 74%
Barometer: 30.04 inHg , 1017.3 hPa
Clouds: Mostly cloudy
Visibility: 10 miles , 16 km
Cloud details: Partly cloudy 2700 ft
Mostly cloudy 3400 ft
2019/05/23 18:15 KEDJ 231815Z AUTO 25019G28KT 10SM SCT027 BKN034 25/20 A3004 RMK AO1
KFDY - Findlay, Ohio, USA
Distance from station: NW 41mi, 66km
Updated: 05/23/2019 1:53pm
Mostly cloudy
Mostly cloudy
 Wind from W
Wind: W 20 mph , 31 km/h, Gust: 28 mph , 44 km/h
Temperature: 79°F , 26°C
Dew Point: 66°F , 19°C
Humidity: 65%
Barometer: 29.98 inHg , 1015.2 hPa
Clouds: Mostly cloudy
Visibility: 10 miles , 16 km
Cloud details: Partly cloudy 3100 ft
Mostly cloudy 4000 ft
Mostly cloudy 4900 ft
2019/05/23 17:53 KFDY 231753Z AUTO 26017G24KT 10SM SCT031 BKN040 BKN049 26/19 A2998 RMK AO2 PK WND 25030/1731 SLP145 60000 T02610194 10267 20194 56001
 
KCMH - Columbus, Ohio, USA
Distance from station: SSE 43mi, 69km
Updated: 05/23/2019 1:51pm
Overcast
Overcast
 Wind from SW
Wind: SW 21 mph , 33 km/h, Gust: 31 mph , 50 km/h
Temperature: 79°F , 26°C
Dew Point: 64°F , 18°C
Humidity: 61%
Barometer: 30.05 inHg , 1017.6 hPa
Clouds: Overcast
Visibility: 10 miles , 16 km
Cloud details: Overcast 3600 ft
2019/05/23 17:51 KCMH 231751Z 23018G27KT 10SM OVC036 26/18 A3005 RMK AO2 PK WND 23030/1731 SLP170 60008 T02560178 10267 20194 58014
KAOH - Lima, Ohio, USA
Distance from station: W 47mi, 76km
Updated: 05/23/2019 1:53pm
Mostly cloudy
Mostly cloudy
 Wind from WSW
Wind: WSW 20 mph , 31 km/h, Gust: 32 mph , 52 km/h
Temperature: 79°F , 26°C
Dew Point: 66°F , 19°C
Humidity: 65%
Barometer: 30.01 inHg , 1016.3 hPa
Clouds: Mostly cloudy
Visibility: 10 miles , 16 km
Cloud details: Mostly cloudy 3700 ft
2019/05/23 17:53 KAOH 231753Z AUTO 24017G28KT 10SM BKN037 26/19 A3001 RMK AO2 PK WND 24031/1707 SLP157 60000 T02560189 10256 20183 58001
 
KTZR - Columbus/Bolton, Ohio, USA
Distance from station: S 48mi, 77km
Updated: 05/23/2019 1:50pm
Mostly cloudy
Mostly cloudy
 Wind from WSW
Wind: WSW 20 mph , 31 km/h, Gust: 28 mph , 44 km/h
Temperature: 79°F , 26°C
Dew Point: 68°F , 20°C
Humidity: 70%
Barometer: 30.07 inHg , 1018.3 hPa
Clouds: Mostly cloudy
Visibility: 10 miles , 16 km
Cloud details: Mostly cloudy 3200 ft
2019/05/23 17:50 KTZR 231750Z 24017G24KT 10SM BKN032 26/20 A3007
KUYF - London, Ohio, USA
Distance from station: SSW 49mi, 78km
Updated: 05/23/2019 2:35pm
Partly cloudy
Partly cloudy
 Wind from WSW
Wind: WSW 22 mph , 35 km/h, Gust: 33 mph , 54 km/h
Temperature: 79°F , 26°C
Dew Point: 72°F , 22°C
Humidity: 79%
Barometer: 30.05 inHg , 1017.6 hPa
Clouds: Partly cloudy
Visibility: 10 miles , 16 km
Cloud details: Partly cloudy 2600 ft
Partly cloudy 3200 ft
2019/05/23 18:35 KUYF 231835Z AUTO 24019G29KT 10SM SCT026 SCT032 26/22 A3005 RMK AO2